Time;durP1;ratioP1;P1;durP2;ratioP2;P2;SDS_P1;SDS_P2;PMS_P1;PMS_P2;Temp;Humidity;BMP_temperature;BMP_pressure;BME280_temperature;BME280_humidity;BME280_pressure;Samples;Min_cycle;Max_cycle;Signal;HPM_P1;HPM_P2
2022/07/05 00:00:06;;;;;;;11.20;6.20;;;;;;;19.26;71.70;99958.08;213203;1281;141914;-63
2022/07/05 00:05:28;;;;;;;12.30;5.90;;;;;;;19.28;72.08;99965.98;213247;1281;144586;-63
2022/07/05 00:10:35;;;;;;;8.30;6.00;;;;;;;19.31;72.34;99976.65;213158;1281;141424;-63
2022/07/05 00:15:38;;;;;;;6.80;6.10;;;;;;;19.30;72.28;100005.48;212877;1281;142417;-65
2022/07/05 00:20:41;;;;;;;8.50;6.70;;;;;;;19.26;72.00;100022.83;212911;1281;140484;-63
2022/07/05 00:25:43;;;;;;;6.80;5.40;;;;;;;19.24;72.14;100016.05;212720;1281;140390;-64
2022/07/05 00:30:46;;;;;;;9.40;7.40;;;;;;;19.24;72.47;100019.13;212975;1281;141160;-63
2022/07/05 00:35:49;;;;;;;8.20;6.30;;;;;;;19.21;72.53;100016.14;212980;1281;141608;-63
2022/07/05 00:40:52;;;;;;;6.60;6.10;;;;;;;19.22;72.76;100012.28;213029;1281;151106;-63
2022/07/05 00:45:56;;;;;;;6.80;6.30;;;;;;;19.20;72.92;100001.59;212914;1281;140855;-63
2022/07/05 00:50:59;;;;;;;6.60;6.10;;;;;;;19.24;73.30;99989.30;212783;1281;139800;-64
2022/07/05 00:56:02;;;;;;;6.90;6.40;;;;;;;19.25;73.15;99957.88;212684;1281;140384;-63
2022/07/05 01:01:07;;;;;;;7.30;6.80;;;;;;;19.18;72.87;99950.00;212640;1281;140028;-62
2022/07/05 01:06:12;;;;;;;6.20;5.70;;;;;;;19.08;73.13;99950.95;212823;1281;139819;-64
2022/07/05 01:11:15;;;;;;;5.80;5.40;;;;;;;19.01;73.09;99946.31;212921;1280;139954;-64
2022/07/05 01:16:18;;;;;;;7.70;5.90;;;;;;;18.97;73.05;99942.84;212919;1281;140662;-64
2022/07/05 01:21:23;;;;;;;6.40;5.90;;;;;;;18.93;73.28;99945.38;212899;1281;140348;-66
2022/07/05 01:26:26;;;;;;;6.20;5.70;;;;;;;18.89;73.32;99954.39;214727;1279;140544;-65
2022/07/05 01:31:30;;;;;;;7.50;6.10;;;;;;;18.88;73.32;99960.93;214867;1280;139723;-66
2022/07/05 01:36:34;;;;;;;5.60;5.20;;;;;;;18.79;73.28;99962.24;214834;1281;141724;-65
2022/07/05 01:41:37;;;;;;;5.50;5.10;;;;;;;18.78;73.46;99968.19;214912;1281;140537;-66
2022/07/05 01:46:40;;;;;;;7.00;6.50;;;;;;;18.82;73.54;99972.65;214991;1281;140341;-66
2022/07/05 01:51:54;;;;;;;6.60;5.80;;;;;;;18.79;73.31;99978.61;215051;1281;140008;-66
2022/07/05 01:56:58;;;;;;;8.40;6.40;;;;;;;18.69;73.18;99977.02;213932;1280;140938;-64
2022/07/05 02:02:02;;;;;;;6.80;6.20;;;;;;;18.66;73.39;99976.55;213205;1281;140741;-67
2022/07/05 02:07:08;;;;;;;6.20;5.60;;;;;;;18.64;73.47;99980.89;213088;1281;140303;-64
2022/07/05 02:12:12;;;;;;;9.50;6.80;;;;;;;18.58;73.38;99981.31;213137;1279;140176;-65
2022/07/05 02:17:15;;;;;;;11.80;7.10;;;;;;;18.46;73.79;99979.00;212878;1281;139820;-66
2022/07/05 02:22:19;;;;;;;7.90;7.30;;;;;;;18.35;73.86;99983.82;212843;1281;141010;-63
2022/07/05 02:27:22;;;;;;;8.00;7.30;;;;;;;18.31;74.23;99989.25;212935;1281;140368;-65
2022/07/05 02:32:25;;;;;;;8.90;7.70;;;;;;;18.30;74.33;99989.75;212956;1281;140538;-65
2022/07/05 02:37:28;;;;;;;8.40;7.70;;;;;;;18.28;74.52;99988.24;213108;1281;140780;-64
2022/07/05 02:42:31;;;;;;;8.00;7.30;;;;;;;18.28;74.53;99997.31;213132;1281;141117;-61
2022/07/05 02:47:35;;;;;;;8.60;7.90;;;;;;;18.22;74.63;99995.77;212852;1281;139741;-63
2022/07/05 02:52:39;;;;;;;10.50;8.30;;;;;;;18.15;74.73;99994.83;213095;1281;139573;-64
2022/07/05 02:57:42;;;;;;;8.40;7.80;;;;;;;18.14;75.03;99986.59;212854;1281;141024;-65
2022/07/05 03:02:44;;;;;;;7.70;7.00;;;;;;;18.14;75.01;99981.41;212942;1281;141814;-65
2022/07/05 03:07:47;;;;;;;8.40;7.60;;;;;;;18.12;74.78;99975.96;212739;1281;140750;-64
2022/07/05 03:12:50;;;;;;;8.20;7.60;;;;;;;18.07;74.90;99972.00;212749;1281;140157;-64
2022/07/05 03:17:52;;;;;;;10.10;7.90;;;;;;;18.02;74.89;99979.70;212765;1281;140358;-64
2022/07/05 03:22:56;;;;;;;7.10;6.60;;;;;;;17.99;74.89;99972.65;213264;1281;140313;-64
2022/07/05 03:27:59;;;;;;;7.60;7.00;;;;;;;18.00;74.91;99962.99;214515;1281;140761;-65
2022/07/05 03:33:02;;;;;;;6.80;5.80;;;;;;;18.05;74.80;99971.90;214981;1281;142360;-65
2022/07/05 03:38:06;;;;;;;9.00;5.80;;;;;;;18.14;74.43;99975.68;214771;1280;140666;-62
2022/07/05 03:43:08;;;;;;;5.60;5.10;;;;;;;18.28;74.31;99976.59;214849;1281;139731;-63
2022/07/05 03:48:10;;;;;;;5.80;5.00;;;;;;;18.57;73.97;99980.88;215102;1280;140648;-62
2022/07/05 03:53:33;;;;;;;15.30;4.90;;;;;;;19.12;73.05;99986.42;213971;1281;141036;-64
2022/07/05 03:58:36;;;;;;;4.60;4.30;;;;;;;19.21;72.42;99986.98;213086;1281;143273;-63
2022/07/05 04:03:38;;;;;;;10.70;4.40;;;;;;;19.13;71.73;99987.17;213387;1281;141372;-65
2022/07/05 04:08:46;;;;;;;8.10;4.60;;;;;;;19.04;71.52;99991.14;213154;1281;140272;-65
2022/07/05 04:13:49;;;;;;;5.70;3.50;;;;;;;18.96;71.39;100004.06;212998;1280;142330;-63
2022/07/05 04:18:51;;;;;;;5.10;4.00;;;;;;;19.09;71.39;100000.28;213076;1281;141309;-64
2022/07/05 04:23:53;;;;;;;4.40;4.10;;;;;;;19.53;71.02;99995.15;213118;1280;139592;-62
2022/07/05 04:28:55;;;;;;;7.40;4.60;;;;;;;20.12;70.32;100000.02;212988;1281;140136;-64
2022/07/05 04:33:59;;;;;;;4.70;4.20;;;;;;;21.34;69.04;99995.54;213016;1281;141193;-63
2022/07/05 04:39:01;;;;;;;3.90;3.60;;;;;;;21.74;67.96;99998.91;212904;1281;141252;-62
2022/07/05 04:44:04;;;;;;;4.40;4.00;;;;;;;22.14;66.21;99996.19;213052;1281;141288;-62
2022/07/05 04:49:06;;;;;;;4.60;3.90;;;;;;;22.70;64.93;99998.09;213198;1281;210099;-63
2022/07/05 04:54:08;;;;;;;3.60;3.40;;;;;;;23.50;63.57;100009.49;213076;1281;140686;-62
2022/07/05 04:59:11;;;;;;;3.10;2.60;;;;;;;24.14;62.20;100006.88;213245;1281;141535;-63
2022/07/05 05:04:14;;;;;;;2.80;2.60;;;;;;;24.65;61.37;100013.20;213054;1281;139946;-65
2022/07/05 05:09:17;;;;;;;3.70;2.90;;;;;;;25.34;59.95;100021.68;212943;1281;141308;-65
2022/07/05 05:14:20;;;;;;;3.70;3.00;;;;;;;25.18;59.24;100029.20;213395;1281;140017;-65
2022/07/05 05:19:23;;;;;;;3.90;2.90;;;;;;;24.52;58.81;100036.69;214926;1280;139316;-65
2022/07/05 05:24:25;;;;;;;4.80;3.10;;;;;;;23.97;58.57;100042.27;215095;1281;150536;-63
2022/07/05 05:29:28;;;;;;;4.70;3.50;;;;;;;23.40;58.81;100040.23;214769;1281;139515;-63
2022/07/05 05:34:30;;;;;;;3.50;3.30;;;;;;;22.98;59.16;100031.88;214951;1281;140143;-62
2022/07/05 05:39:32;;;;;;;3.30;3.10;;;;;;;22.69;59.47;100027.52;215141;1281;139383;-62
2022/07/05 05:44:34;;;;;;;4.70;3.70;;;;;;;22.49;59.64;100022.65;215074;1280;140845;-62
2022/07/05 05:49:37;;;;;;;2.90;2.70;;;;;;;22.31;59.78;100016.20;213447;1280;139486;-63
2022/07/05 05:54:39;;;;;;;5.30;3.20;;;;;;;22.13;60.23;100016.31;213418;1281;141846;-63
2022/07/05 05:59:41;;;;;;;3.10;2.90;;;;;;;21.98;60.34;100020.33;213407;1281;140095;-62
2022/07/05 06:04:45;;;;;;;4.90;3.60;;;;;;;21.84;60.58;100029.16;212942;1281;139645;-64
2022/07/05 06:09:49;;;;;;;3.30;3.00;;;;;;;21.64;60.73;100032.98;212909;1281;139585;-62
2022/07/05 06:14:52;;;;;;;8.60;3.60;;;;;;;21.44;60.97;100039.05;212921;1281;140112;-63
2022/07/05 06:19:54;;;;;;;3.70;3.30;;;;;;;21.25;61.32;100050.77;212940;1281;140411;-63
2022/07/05 06:24:57;;;;;;;4.20;3.00;;;;;;;21.10;61.64;100067.60;212894;1281;539453;-63
2022/07/05 06:30:22;;;;;;;3.50;3.20;;;;;;;20.97;61.74;100085.70;213000;1280;141354;-65
2022/07/05 06:35:25;;;;;;;5.60;3.70;;;;;;;20.91;62.14;100084.70;212750;1281;139828;-64
2022/07/05 06:40:32;;;;;;;3.50;3.20;;;;;;;20.84;62.12;100081.71;212796;1281;140600;-63
2022/07/05 06:45:35;;;;;;;6.40;3.50;;;;;;;20.75;62.25;100070.11;212657;1281;139743;-65
2022/07/05 06:50:41;;;;;;;4.40;3.00;;;;;;;20.68;62.59;100069.06;212949;1281;232332;-64
2022/07/05 06:55:46;;;;;;;3.20;3.00;;;;;;;20.62;62.90;100071.32;212455;1281;140238;-63
2022/07/05 07:00:57;;;;;;;5.10;3.10;;;;;;;20.62;63.26;100082.52;214413;1279;140242;-65
2022/07/05 07:06:20;;;;;;;5.30;3.40;;;;;;;20.70;63.10;100086.86;215038;1280;140834;-65
2022/07/05 07:11:23;;;;;;;3.00;2.70;;;;;;;20.85;63.19;100086.42;215002;1280;139656;-65
2022/07/05 07:16:25;;;;;;;3.10;2.90;;;;;;;20.91;63.05;100075.05;214874;1281;140002;-65
2022/07/05 07:21:28;;;;;;;4.50;3.00;;;;;;;20.97;62.98;100078.48;214855;1280;140958;-65
2022/07/05 07:27:02;;;;;;;4.90;2.50;;;;;;;20.99;62.74;100079.04;213036;1280;141572;-65
2022/07/05 07:31:54;;;;;;;2.40;2.20;;;;;;;21.01;62.86;100076.47;214839;1281;140173;-66
2022/07/05 07:36:57;;;;;;;7.00;2.70;;;;;;;20.98;62.70;100076.79;215198;1280;139927;-66
2022/07/05 07:41:59;;;;;;;2.70;2.50;;;;;;;20.93;62.59;100076.81;212788;1281;140570;-66
2022/07/05 07:47:03;;;;;;;2.80;2.30;;;;;;;20.84;62.48;100072.55;213216;1281;142441;-65
2022/07/05 07:52:07;;;;;;;3.30;2.00;;;;;;;20.79;62.45;100063.96;212718;1281;141540;-64
2022/07/05 07:57:09;;;;;;;4.90;2.20;;;;;;;20.80;62.45;100067.03;213133;1281;140377;-68
2022/07/05 08:02:14;;;;;;;2.10;2.00;;;;;;;20.91;62.48;100072.82;212832;1281;141059;-64
2022/07/05 08:07:17;;;;;;;5.70;2.60;;;;;;;21.07;62.35;100076.96;212788;1280;141884;-64
2022/07/05 08:12:20;;;;;;;2.30;2.20;;;;;;;21.26;62.24;100079.77;212825;1281;141107;-67
2022/07/05 08:17:24;;;;;;;2.20;2.10;;;;;;;21.44;61.61;100085.75;212797;1281;222368;-65
2022/07/05 08:22:29;;;;;;;2.60;2.00;;;;;;;21.56;61.25;100086.89;212946;1281;141558;-65
2022/07/05 08:27:32;;;;;;;2.60;2.10;;;;;;;21.67;60.79;100087.20;212545;1281;142182;-65
2022/07/05 08:32:35;;;;;;;5.40;2.60;;;;;;;21.69;60.50;100091.61;212461;1281;143079;-64
2022/07/05 08:37:37;;;;;;;5.00;2.20;;;;;;;21.69;60.65;100096.55;212700;1281;140954;-65
2022/07/05 08:42:41;;;;;;;3.90;2.50;;;;;;;21.60;60.56;100105.83;212897;1281;140617;-67
2022/07/05 08:47:46;;;;;;;5.00;2.60;;;;;;;21.49;60.63;100104.33;212836;1279;141434;-66
2022/07/05 08:52:49;;;;;;;4.00;2.30;;;;;;;21.44;60.70;100108.09;213055;1281;142946;-64
2022/07/05 08:57:51;;;;;;;3.30;2.30;;;;;;;21.38;61.11;100106.55;212893;1281;141898;-66
2022/07/05 09:02:57;;;;;;;2.30;2.20;;;;;;;21.31;61.29;100110.08;212885;1281;141358;-65
2022/07/05 09:08:01;;;;;;;6.80;2.90;;;;;;;21.20;61.27;100110.38;214602;1280;141080;-66
2022/07/05 09:13:05;;;;;;;2.40;2.20;;;;;;;21.12;61.17;100096.01;214694;1281;140267;-64
2022/07/05 09:18:10;;;;;;;2.40;2.10;;;;;;;21.06;60.67;100097.42;214639;1281;141414;-66
2022/07/05 09:23:23;;;;;;;3.70;1.60;;;;;;;21.00;61.08;100106.19;214477;1281;140372;-65
2022/07/05 09:28:30;;;;;;;;;;;;;;;20.92;61.58;100107.61;214660;1281;141440;-65
2022/07/05 09:33:33;;;;;;;3.80;2.40;;;;;;;20.76;61.54;100107.80;215268;1281;126660;-66
2022/07/05 09:38:37;;;;;;;2.00;1.90;;;;;;;20.61;61.89;100097.17;214217;1281;140701;-65
2022/07/05 09:43:43;;;;;;;3.60;2.20;;;;;;;20.49;61.82;100103.02;213058;1281;139773;-66
2022/07/05 09:48:52;;;;;;;2.60;2.40;;;;;;;20.40;62.17;100113.60;213278;1280;140265;-65
2022/07/05 09:53:58;;;;;;;2.70;2.40;;;;;;;20.34;62.08;100122.95;212596;1281;141374;-65
2022/07/05 09:59:14;;;;;;;4.30;2.40;;;;;;;20.30;62.34;100132.86;212918;1281;142580;-67
2022/07/05 10:04:16;;;;;;;3.00;2.80;;;;;;;20.25;62.97;100142.27;212864;1281;152918;-65
2022/07/05 10:09:19;;;;;;;3.50;3.20;;;;;;;20.17;63.66;100151.46;212635;1281;140875;-66
2022/07/05 10:14:26;;;;;;;3.20;2.70;;;;;;;20.09;64.03;100155.03;212663;1281;141031;-65
2022/07/05 10:19:37;;;;;;;2.60;2.40;;;;;;;19.97;64.51;100150.16;212833;1281;140826;-65
2022/07/05 10:24:41;;;;;;;5.80;3.50;;;;;;;19.90;64.95;100146.88;212568;1281;139846;-65
2022/07/05 10:29:45;;;;;;;5.00;2.50;;;;;;;19.85;65.72;100154.69;212867;1281;140084;-65
2022/07/05 10:34:48;;;;;;;3.20;2.90;;;;;;;19.80;66.03;100169.55;212829;1280;142506;-66
2022/07/05 10:40:03;;;;;;;3.10;2.80;;;;;;;19.57;66.69;100180.17;212868;1281;140053;-63
2022/07/05 10:45:32;;;;;;;3.70;3.20;;;;;;;19.29;67.67;100187.89;212591;1281;140483;-63
2022/07/05 10:50:54;;;;;;;3.60;3.20;;;;;;;19.11;68.77;100185.42;212731;1281;139855;-63
2022/07/05 10:56:01;;;;;;;4.30;4.00;;;;;;;19.20;69.28;100184.51;214736;1281;142834;-65
2022/07/05 11:01:20;;;;;;;5.10;4.40;;;;;;;19.34;69.69;100184.44;215024;1280;141990;-65
2022/07/05 11:06:25;;;;;;;6.40;4.50;;;;;;;19.47;69.72;100179.92;215165;1280;140481;-64
2022/07/05 11:11:31;;;;;;;6.50;4.20;;;;;;;19.57;70.10;100174.94;214859;1281;140027;-63
2022/07/05 11:16:36;;;;;;;5.60;5.20;;;;;;;19.67;70.37;100169.49;214994;1281;141777;-62
2022/07/05 11:21:59;;;;;;;6.00;5.40;;;;;;;19.73;70.29;100155.92;214552;1281;141755;-63
2022/07/05 11:27:03;;;;;;;6.60;5.00;;;;;;;19.84;70.54;100149.45;214574;1281;140199;-65
2022/07/05 11:32:12;;;;;;;5.80;5.30;;;;;;;19.91;70.48;100149.03;214535;1280;140868;-62
2022/07/05 11:37:36;;;;;;;5.70;5.30;;;;;;;20.00;70.55;100143.43;212887;1279;142895;-64
2022/07/05 11:43:02;;;;;;;5.90;4.80;;;;;;;20.13;70.51;100143.02;213080;1280;142325;-64
2022/07/05 11:48:16;;;;;;;5.50;4.90;;;;;;;20.22;70.21;100146.64;212890;1281;141303;-64
2022/07/05 11:53:29;;;;;;;5.00;4.70;;;;;;;20.24;69.81;100144.45;212823;1281;142565;-64
2022/07/05 11:58:53;;;;;;;4.60;4.20;;;;;;;20.25;70.16;100141.30;212978;1281;140903;-65
2022/07/05 12:03:58;;;;;;;4.70;4.20;;;;;;;20.32;70.14;100140.04;212637;1281;141354;-64
2022/07/05 12:09:05;;;;;;;6.10;5.50;;;;;;;20.41;70.16;100132.64;212833;1281;140141;-66
2022/07/05 12:14:09;;;;;;;6.00;4.90;;;;;;;20.49;70.18;100127.71;212993;1281;140393;-64
2022/07/05 12:19:24;;;;;;;4.90;4.50;;;;;;;20.56;70.29;100121.77;212767;1280;142241;-62
2022/07/05 12:24:27;;;;;;;6.70;4.60;;;;;;;20.57;70.03;100113.73;212889;1279;144990;-64
2022/07/05 12:29:34;;;;;;;5.10;4.70;;;;;;;20.55;70.12;100119.18;212786;1281;140149;-65
2022/07/05 12:34:37;;;;;;;8.00;4.30;;;;;;;20.55;70.36;100122.27;213205;1281;140413;-64
2022/07/05 12:39:40;;;;;;;5.20;3.80;;;;;;;20.55;70.47;100125.90;212514;1281;142102;-66
2022/07/05 12:44:43;;;;;;;3.30;3.10;;;;;;;20.49;70.01;100127.39;212905;1281;140854;-64
2022/07/05 12:50:00;;;;;;;4.50;4.10;;;;;;;20.36;69.60;100131.55;212602;1281;144064;-66
2022/07/05 13:00:34;;;;;;;3.50;3.30;;;;;;;20.21;69.77;100135.27;215105;1281;141680;-64
2022/07/05 13:05:36;;;;;;;5.00;4.10;;;;;;;20.24;69.93;100138.27;214907;1278;162338;-65
2022/07/05 13:10:46;;;;;;;3.20;2.90;;;;;;;20.30;69.88;100142.00;215171;1280;140295;-65
2022/07/05 13:15:48;;;;;;;4.20;2.60;;;;;;;20.34;69.74;100140.01;214878;1279;140241;-62
2022/07/05 13:20:55;;;;;;;3.80;2.80;;;;;;;20.36;69.49;100140.54;215048;1281;145251;-65
2022/07/05 13:25:58;;;;;;;3.10;2.60;;;;;;;20.32;69.40;100148.25;214934;1281;140746;-63
2022/07/05 13:31:00;;;;;;;3.50;3.30;;;;;;;20.23;69.21;100145.65;213658;1279;142199;-64
2022/07/05 13:36:05;;;;;;;3.60;3.30;;;;;;;20.06;69.19;100146.02;212993;1279;165210;-66
2022/07/05 13:41:07;;;;;;;2.90;2.70;;;;;;;19.96;69.75;100148.06;212903;1279;142239;-61
2022/07/05 13:46:14;;;;;;;3.50;3.20;;;;;;;19.88;69.88;100148.32;212914;1281;141073;-63
2022/07/05 13:51:16;;;;;;;;;;;;;;;19.78;70.08;100144.52;212473;1280;140537;-63
2022/07/05 13:56:19;;;;;;;3.20;3.00;;;;;;;19.70;70.72;100145.07;213402;1281;127680;-61
2022/07/05 14:01:29;;;;;;;3.90;3.60;;;;;;;19.67;70.68;100139.75;212656;1281;142077;-62
2022/07/05 14:06:34;;;;;;;3.40;3.10;;;;;;;19.67;71.02;100135.90;212835;1281;142174;-62
2022/07/05 14:11:38;;;;;;;3.40;3.10;;;;;;;19.67;71.12;100123.36;212851;1281;141316;-64
2022/07/05 14:16:41;;;;;;;4.70;2.90;;;;;;;19.62;71.14;100115.13;213046;1279;141182;-63
2022/07/05 14:23:56;;;;;;;3.80;3.40;;;;;;;19.59;70.87;100108.40;212529;1307;683255;-63
2022/07/05 14:29:00;;;;;;;4.00;3.60;;;;;;;19.56;71.33;100099.75;210746;1289;139823;-62
2022/07/05 14:34:05;;;;;;;3.40;3.20;;;;;;;19.57;71.24;100096.36;210305;1287;922581;-63
2022/07/05 14:39:08;;;;;;;3.60;3.40;;;;;;;19.54;70.90;100099.86;211079;1286;140635;-63
2022/07/05 14:44:15;;;;;;;4.40;2.90;;;;;;;19.46;70.96;100102.50;211562;1286;139682;-64
2022/07/05 14:49:17;;;;;;;4.20;3.10;;;;;;;19.37;71.03;100101.77;211849;1286;140801;-62
2022/07/05 14:54:19;;;;;;;5.20;3.30;;;;;;;19.27;71.29;100095.09;213653;1286;142924;-62
2022/07/05 14:59:22;;;;;;;3.50;3.10;;;;;;;19.21;71.23;100089.52;213429;1286;140374;-63
2022/07/05 15:04:24;;;;;;;3.30;2.90;;;;;;;19.22;71.49;100092.81;213687;1286;149445;-64
2022/07/05 15:09:27;;;;;;;5.40;3.60;;;;;;;19.22;71.64;100091.90;213748;1286;139403;-64
2022/07/05 15:14:30;;;;;;;3.60;3.30;;;;;;;19.22;71.78;100093.84;213765;1285;139581;-64
2022/07/05 15:19:34;;;;;;;6.40;3.40;;;;;;;19.26;71.51;100092.08;213708;1285;232817;-62
2022/07/05 15:24:37;;;;;;;3.30;3.10;;;;;;;19.24;71.48;100095.98;212220;1286;139890;-64
2022/07/05 15:29:42;;;;;;;4.50;2.90;;;;;;;19.27;71.75;100091.41;210776;1286;139230;-63
2022/07/05 15:34:47;;;;;;;3.40;3.10;;;;;;;19.32;71.86;100087.25;211143;1288;140041;-62
2022/07/05 15:39:50;;;;;;;3.90;3.40;;;;;;;19.40;71.86;100088.59;211210;1286;139467;-64
2022/07/05 15:44:55;;;;;;;5.70;4.50;;;;;;;19.50;71.88;100082.36;211399;1286;139463;-65
2022/07/05 15:50:09;;;;;;;3.90;3.60;;;;;;;19.60;71.91;100080.63;211245;1286;139676;-62
2022/07/05 15:55:13;;;;;;;;;;;;;;;19.65;71.78;100079.41;211279;1286;140285;-65
2022/07/05 16:00:17;;;;;;;4.30;3.90;;;;;;;19.60;71.60;100083.83;212182;1286;126760;-64
2022/07/05 16:05:21;;;;;;;4.30;4.00;;;;;;;19.62;71.65;100083.16;211414;1286;143041;-67
2022/07/05 16:10:27;;;;;;;4.00;3.70;;;;;;;19.56;71.80;100079.19;211811;1286;139178;-62
2022/07/05 16:21:01;;;;;;;4.40;4.10;;;;;;;19.49;71.90;100075.70;211282;1286;140891;-62
2022/07/05 16:26:15;;;;;;;5.30;4.50;;;;;;;19.41;71.81;100079.39;211303;1286;140681;-62
2022/07/05 16:31:22;;;;;;;4.20;3.90;;;;;;;19.34;72.06;100078.32;211240;1286;140782;-62
2022/07/05 16:36:26;;;;;;;7.40;4.60;;;;;;;19.23;72.19;100073.51;210905;1286;139565;-63
2022/07/05 16:41:29;;;;;;;5.10;4.70;;;;;;;19.11;72.16;100067.11;211209;1286;140623;-63
2022/07/05 16:46:37;;;;;;;6.60;4.60;;;;;;;19.01;72.34;100060.34;212380;1286;140144;-62
2022/07/05 16:51:42;;;;;;;9.90;3.50;;;;;;;18.95;72.88;100058.77;213750;1285;139497;-63
2022/07/05 16:56:45;;;;;;;3.80;3.50;;;;;;;18.94;72.81;100054.73;213143;1286;139769;-64
2022/07/05 17:01:52;;;;;;;10.70;4.00;;;;;;;18.83;72.64;100045.79;213869;1286;140666;-63
2022/07/05 17:06:55;;;;;;;4.10;3.70;;;;;;;18.73;72.74;100044.38;213680;1286;140328;-63
2022/07/05 17:11:58;;;;;;;4.50;4.30;;;;;;;18.66;73.25;100041.89;213585;1285;139567;-63
2022/07/05 17:17:04;;;;;;;4.30;4.10;;;;;;;18.67;73.23;100038.48;213659;1286;139925;-62
2022/07/05 17:22:08;;;;;;;;;;;;;;;18.76;73.40;100038.20;211974;1286;141180;-62
2022/07/05 17:27:11;;;;;;;5.90;5.40;;;;;;;18.71;73.41;100036.30;212161;1286;126062;-64
2022/07/05 17:32:16;;;;;;;5.50;5.10;;;;;;;18.80;73.75;100043.10;211160;1287;141607;-63
2022/07/05 17:37:20;;;;;;;4.50;4.30;;;;;;;18.90;73.86;100048.05;211274;1287;142070;-63
2022/07/05 17:42:24;;;;;;;5.20;3.90;;;;;;;18.94;73.79;100044.52;211364;1287;142313;-63
2022/07/05 17:47:27;;;;;;;6.50;3.80;;;;;;;18.94;73.76;100046.25;211406;1286;141678;-62
2022/07/05 17:52:30;;;;;;;4.90;4.30;;;;;;;18.90;73.78;100048.38;211576;1287;141487;-62
2022/07/05 17:57:41;;;;;;;6.70;4.60;;;;;;;18.86;73.93;100050.14;211388;1286;140801;-61
2022/07/05 18:02:45;;;;;;;4.10;3.70;;;;;;;18.80;73.87;100045.80;212135;1286;140204;-62
2022/07/05 18:07:57;;;;;;;4.70;4.40;;;;;;;18.68;74.06;100037.17;211465;1286;143741;-61
2022/07/05 18:13:02;;;;;;;5.30;4.90;;;;;;;18.69;74.36;100040.25;211210;1287;139305;-63
2022/07/05 18:18:10;;;;;;;4.60;4.20;;;;;;;18.70;74.40;100039.86;210881;1287;142193;-64
2022/07/05 18:23:14;;;;;;;5.40;4.60;;;;;;;18.70;74.67;100043.54;212888;1280;139694;-64
2022/07/05 18:28:17;;;;;;;4.70;4.30;;;;;;;18.68;74.45;100042.64;212520;1281;140146;-62
2022/07/05 18:33:22;;;;;;;5.80;5.20;;;;;;;18.64;74.53;100043.23;212329;1281;141122;-63
2022/07/05 18:38:29;;;;;;;5.50;4.70;;;;;;;18.60;74.58;100043.77;212376;1280;139992;-63
2022/07/05 18:43:32;;;;;;;5.50;5.00;;;;;;;18.57;74.78;100046.27;213531;1281;139398;-63
2022/07/05 18:48:37;;;;;;;7.70;5.10;;;;;;;18.54;74.86;100040.13;214975;1280;139902;-63
2022/07/05 18:53:40;;;;;;;9.50;5.40;;;;;;;18.52;74.79;100037.65;214757;1281;141167;-63
2022/07/05 18:58:45;;;;;;;5.60;5.10;;;;;;;18.49;74.91;100042.79;215291;1280;140476;-63
2022/07/05 19:03:53;;;;;;;4.80;4.30;;;;;;;18.47;74.79;100045.88;214598;1281;141521;-64
2022/07/05 19:14:20;;;;;;;9.80;4.90;;;;;;;18.44;74.98;100047.62;214683;1281;140838;-64
2022/07/05 19:19:25;;;;;;;5.70;5.10;;;;;;;18.47;74.98;100051.05;214569;1281;140071;-64
2022/07/05 19:24:28;;;;;;;6.50;5.10;;;;;;;18.45;74.97;100051.77;213725;1280;139785;-65
2022/07/05 19:29:32;;;;;;;5.40;4.90;;;;;;;18.42;74.93;100054.33;212957;1279;141312;-64
2022/07/05 19:34:34;;;;;;;5.40;5.00;;;;;;;18.38;74.93;100057.48;213077;1279;140704;-64
2022/07/05 19:39:38;;;;;;;6.00;5.50;;;;;;;18.14;74.38;100055.71;213298;1279;139798;-63
2022/07/05 19:44:41;;;;;;;9.00;6.20;;;;;;;17.85;74.96;100055.98;212650;1279;139744;-65
2022/07/05 19:49:46;;;;;;;9.80;6.70;;;;;;;17.80;75.40;100058.42;213373;1278;140794;-65
2022/07/05 19:54:57;;;;;;;6.80;6.20;;;;;;;17.74;75.59;100057.73;212857;1277;141326;-64
2022/07/05 20:00:01;;;;;;;;;;;;;;;17.61;75.77;100059.20;212942;1278;140810;-63
2022/07/05 20:05:06;;;;;;;6.70;6.10;;;;;;;17.62;76.42;100056.77;213493;1279;128052;-65
2022/07/05 20:10:10;;;;;;;5.90;5.40;;;;;;;17.61;76.27;100059.10;212585;1278;140584;-64
2022/07/05 20:15:13;;;;;;;7.30;6.40;;;;;;;17.63;76.70;100056.73;212755;1277;141955;-63
2022/07/05 20:20:17;;;;;;;9.20;6.20;;;;;;;17.64;76.55;100057.10;213083;1278;143509;-64
2022/07/05 20:25:22;;;;;;;7.10;6.40;;;;;;;17.65;76.45;100059.48;212793;1278;140812;-64
2022/07/05 20:30:26;;;;;;;7.70;6.40;;;;;;;17.65;76.51;100059.98;213274;1279;139604;-61
2022/07/05 20:35:28;;;;;;;7.20;6.40;;;;;;;17.63;76.47;100058.88;212856;1277;139687;-64
2022/07/05 20:40:32;;;;;;;9.90;5.20;;;;;;;17.61;76.45;100054.19;213037;1277;141850;-62
2022/07/05 20:45:36;;;;;;;12.40;6.80;;;;;;;17.47;76.25;100052.11;213029;1277;141053;-63
2022/07/05 20:50:38;;;;;;;9.10;6.10;;;;;;;17.43;76.49;100049.36;212997;1277;141387;-62
2022/07/05 20:55:45;;;;;;;6.70;6.20;;;;;;;17.44;76.71;100049.09;213703;1277;140533;-64
2022/07/05 21:00:48;;;;;;;6.00;5.40;;;;;;;17.43;76.74;100048.45;215317;1277;141004;-63
2022/07/05 21:05:51;;;;;;;6.70;5.80;;;;;;;17.41;76.59;100055.63;215764;1276;140440;-63
2022/07/05 21:10:54;;;;;;;7.40;6.00;;;;;;;17.41;76.43;100054.93;215950;1276;144094;-64
2022/07/05 21:15:58;;;;;;;6.70;6.00;;;;;;;17.37;76.21;100055.11;214775;1277;141525;-64
2022/07/05 21:21:02;;;;;;;7.90;6.10;;;;;;;17.25;76.15;100051.92;213644;1277;140208;-63
2022/07/05 21:26:06;;;;;;;6.10;5.60;;;;;;;17.18;76.26;100057.46;213626;1279;151124;-62
2022/07/05 21:31:10;;;;;;;7.30;5.40;;;;;;;17.13;76.47;100056.73;213236;1277;140366;-64
2022/07/05 21:36:13;;;;;;;7.00;6.50;;;;;;;17.15;76.69;100059.36;212967;1278;141850;-63
2022/07/05 21:41:16;;;;;;;17.60;7.20;;;;;;;17.16;76.89;100058.11;212918;1277;143974;-64
2022/07/05 21:46:19;;;;;;;7.40;6.70;;;;;;;17.15;76.90;100057.85;213484;1277;142991;-63
2022/07/05 21:51:23;;;;;;;6.80;6.20;;;;;;;17.05;76.73;100061.64;213054;1277;140361;-64
2022/07/05 21:56:29;;;;;;;6.90;6.40;;;;;;;17.00;76.98;100064.38;213308;1277;140659;-62
2022/07/05 22:07:07;;;;;;;9.40;7.20;;;;;;;16.87;76.97;100067.48;213284;1277;140361;-62
2022/07/05 22:12:28;;;;;;;8.00;7.20;;;;;;;16.85;77.28;100067.22;213164;1277;140036;-63
2022/07/05 22:17:30;;;;;;;6.90;6.30;;;;;;;16.79;77.30;100058.29;213558;1277;141442;-63
2022/07/05 22:22:33;;;;;;;9.30;8.20;;;;;;;16.81;77.57;100051.86;213298;1276;140590;-63
2022/07/05 22:27:37;;;;;;;7.40;6.90;;;;;;;16.83;77.65;100053.64;212985;1277;140661;-64
2022/07/05 22:32:40;;;;;;;7.00;6.50;;;;;;;16.79;77.33;100056.12;213291;1276;150388;-62
2022/07/05 22:37:43;;;;;;;11.10;7.00;;;;;;;16.67;77.34;100048.83;213789;1277;139873;-62
2022/07/05 22:42:46;;;;;;;7.60;6.90;;;;;;;16.59;77.55;100044.64;215083;1277;140848;-62
2022/07/05 22:47:49;;;;;;;10.90;7.40;;;;;;;16.51;77.34;100043.02;215649;1277;141196;-63
2022/07/05 22:52:52;;;;;;;10.10;6.10;;;;;;;16.44;77.43;100040.11;215631;1277;141763;-62
2022/07/05 22:57:55;;;;;;;6.30;5.80;;;;;;;16.43;77.67;100041.77;215662;1277;141365;-62
2022/07/05 23:02:58;;;;;;;6.90;5.90;;;;;;;16.52;77.87;100035.27;215363;1277;139772;-62
2022/07/05 23:08:04;;;;;;;6.40;5.90;;;;;;;16.52;77.59;100038.17;215935;1274;140170;-62
2022/07/05 23:13:07;;;;;;;17.70;7.30;;;;;;;16.54;77.72;100037.95;215696;1274;140576;-62
2022/07/05 23:18:13;;;;;;;7.50;6.90;;;;;;;16.53;77.31;100033.83;214246;1274;141587;-63
2022/07/05 23:23:17;;;;;;;6.50;6.00;;;;;;;16.41;77.35;100030.84;213919;1276;141611;-62
2022/07/05 23:28:20;;;;;;;11.90;7.60;;;;;;;16.27;77.24;100025.58;214557;1274;140408;-63
2022/07/05 23:33:28;;;;;;;7.60;7.00;;;;;;;16.19;77.79;100027.39;213506;1274;141163;-64